Knox City, Missouri
Current Conditions -  °F | °C
As of 9:55 PM on Wednesday 17 Dec 2014 (Local Time) from KIRK Reporting Station
Overcast Overcast  
Wind Chill: -3°   Ceiling: 9000
Heat Index: -3°   Visibility: 10mi
Dew Point: -5°   Wind: 3mph
Humidity: 85%   Direction: 200°SSW
Pressure: 30.31"   Gusts: NA
Location:  40.14°N, 92.01°W
Report Text: KIRK 180355Z AUTO 20003KT 10SM OVC090 M03/M05 A3031 RMK AO2 SLP280 T10281050
Loading
Personal Weather Stations






























Interactive Weather Map New forecast layout! Learn more

10-Day Weather Forecast

Advertisements
Track Severe Weather on mobile